createdAt,value
2018-02-11T00:01:43.407Z,52.40
2018-02-11T00:04:15.341Z,52.00
2018-02-11T00:06:46.229Z,52.00
2018-02-11T00:09:16.955Z,51.80
2018-02-11T00:11:48.560Z,50.30
2018-02-11T00:14:19.468Z,50.20
2018-02-11T00:16:50.134Z,49.80
2018-02-11T00:19:21.033Z,49.20
2018-02-11T00:21:51.655Z,49.10
2018-02-11T00:24:22.327Z,48.70
2018-02-11T00:26:53.206Z,48.60
2018-02-11T00:29:24.485Z,48.50
2018-02-11T00:31:55.064Z,48.50
2018-02-11T00:34:25.795Z,48.90
2018-02-11T00:36:56.542Z,46.90
2018-02-11T00:39:27.417Z,44.40
2018-02-11T00:41:58.129Z,44.60
2018-02-11T00:44:29.779Z,41.40
2018-02-11T00:47:01.154Z,41.10
2018-02-11T00:49:31.883Z,41.10
2018-02-11T00:52:02.661Z,40.60
2018-02-11T00:54:33.134Z,39.60
2018-02-11T00:57:04.626Z,38.30
2018-02-11T00:59:35.146Z,38.20
2018-02-11T01:02:05.903Z,39.00
2018-02-11T01:04:36.478Z,39.00
2018-02-11T01:07:07.954Z,38.70
2018-02-11T01:09:38.777Z,38.60
2018-02-11T01:12:09.255Z,40.80
2018-02-11T01:14:40.086Z,42.60
2018-02-11T01:17:11.609Z,43.40
2018-02-11T01:19:42.213Z,43.50
2018-02-11T01:22:13.785Z,43.10
2018-02-11T01:24:44.470Z,43.10
2018-02-11T01:27:15.088Z,42.90
2018-02-11T01:29:45.853Z,42.40
2018-02-11T01:32:17.430Z,42.50
2018-02-11T01:34:48.213Z,42.40
2018-02-11T01:37:18.882Z,41.20
2018-02-11T01:39:50.479Z,42.20
2018-02-11T01:42:21.434Z,42.20
2018-02-11T01:44:52.234Z,41.40
2018-02-11T01:47:22.975Z,41.20
2018-02-11T01:50:04.501Z,40.90
2018-02-11T01:52:35.257Z,40.60
2018-02-11T01:55:06.866Z,40.10
2018-02-11T01:57:37.427Z,40.10
2018-02-11T02:00:07.964Z,39.90
2018-02-11T02:02:40.291Z,40.10
2018-02-11T02:05:11.419Z,40.10
2018-02-11T02:07:42.354Z,40.30
2018-02-11T02:10:13.135Z,40.50
2018-02-11T02:12:44.053Z,40.30
2018-02-11T02:15:14.893Z,40.20
2018-02-11T02:17:45.641Z,39.50
2018-02-11T02:20:16.226Z,40.90
2018-02-11T02:22:47.154Z,39.70
2018-02-11T02:25:18.023Z,39.90
2018-02-11T02:27:48.971Z,40.00
2018-02-11T02:30:19.734Z,39.60
2018-02-11T02:32:50.730Z,39.60
2018-02-11T02:35:22.257Z,40.60
2018-02-11T02:37:52.823Z,39.30
2018-02-11T02:40:23.638Z,39.70
2018-02-11T02:42:54.317Z,40.00
2018-02-11T02:45:25.267Z,40.00
2018-02-11T02:47:56.034Z,40.30
2018-02-11T02:50:26.773Z,40.10
2018-02-11T02:52:57.699Z,40.10
2018-02-11T02:55:28.570Z,40.50
2018-02-11T02:57:59.317Z,40.70
2018-02-11T03:00:30.001Z,40.40
2018-02-11T03:03:00.737Z,39.90
2018-02-11T03:05:32.626Z,40.00
2018-02-11T03:08:03.942Z,40.00
2018-02-11T03:10:37.611Z,39.90
2018-02-11T03:13:08.501Z,39.80
2018-02-11T03:15:39.377Z,39.90
2018-02-11T03:18:10.851Z,40.90
2018-02-11T03:20:43.114Z,40.50
2018-02-11T03:23:15.098Z,40.70
2018-02-11T03:25:46.624Z,40.30
2018-02-11T03:28:18.374Z,40.30
2018-02-11T03:30:49.611Z,40.90
2018-02-11T03:33:20.354Z,40.20
2018-02-11T03:35:51.301Z,40.10
2018-02-11T03:38:22.137Z,40.40
2018-02-11T03:40:53.055Z,39.90
2018-02-11T03:43:24.002Z,39.70
2018-02-11T03:45:54.582Z,40.60
2018-02-11T03:48:25.238Z,40.00
2018-02-11T03:50:55.853Z,40.00
2018-02-11T03:53:26.931Z,40.90
2018-02-11T03:55:57.424Z,40.20
2018-02-11T03:58:28.142Z,40.40
2018-02-11T04:00:59.975Z,40.70
2018-02-11T04:03:30.813Z,40.60
2018-02-11T04:06:01.635Z,40.50
2018-02-11T04:08:32.570Z,41.50
2018-02-11T04:11:03.422Z,40.80
2018-02-11T04:13:34.180Z,40.30
2018-02-11T04:16:05.833Z,40.10
2018-02-11T04:18:36.626Z,40.00
2018-02-11T04:21:07.439Z,39.60
2018-02-11T04:23:38.280Z,39.90
2018-02-11T04:26:09.155Z,40.50
2018-02-11T04:28:39.818Z,39.80
2018-02-11T04:31:10.993Z,39.90
2018-02-11T04:33:41.922Z,39.70
2018-02-11T04:36:12.698Z,39.90
2018-02-11T04:38:43.364Z,39.40
2018-02-11T04:41:14.145Z,39.30
2018-02-11T04:43:44.724Z,40.10
2018-02-11T04:46:16.592Z,39.10
2018-02-11T04:48:48.132Z,39.40
2018-02-11T04:51:19.754Z,37.50
2018-02-11T04:53:50.435Z,37.40
2018-02-11T04:56:21.276Z,38.10
2018-02-11T04:58:52.024Z,38.40
2018-02-11T05:01:22.714Z,38.20
2018-02-11T05:03:54.277Z,38.20
2018-02-11T05:06:25.827Z,38.20
2018-02-11T05:08:57.693Z,37.70
2018-02-11T05:11:29.217Z,38.90
2018-02-11T05:14:00.834Z,37.00
2018-02-11T05:16:31.762Z,36.90
2018-02-11T05:19:02.452Z,37.20
2018-02-11T05:21:34.750Z,37.90
2018-02-11T05:24:06.245Z,37.00
2018-02-11T05:26:37.215Z,37.00
2018-02-11T05:29:07.958Z,37.80
2018-02-11T05:31:39.486Z,38.20
2018-02-11T05:34:10.454Z,38.20
2018-02-11T05:36:42.082Z,39.60
2018-02-11T05:39:12.911Z,39.50
2018-02-11T05:41:43.796Z,37.80
2018-02-11T05:44:15.341Z,40.30
2018-02-11T05:46:47.121Z,39.90
2018-02-11T05:49:17.763Z,39.90
2018-02-11T05:51:48.558Z,39.40
2018-02-11T05:54:20.163Z,39.70
2018-02-11T05:56:51.254Z,39.70
2018-02-11T05:59:22.997Z,40.20
2018-02-11T06:01:54.617Z,39.70
2018-02-11T06:04:25.264Z,39.70
2018-02-11T06:06:56.009Z,39.90
2018-02-11T06:09:26.949Z,40.10
2018-02-11T06:11:58.403Z,41.10
2018-02-11T06:14:29.133Z,41.00
2018-02-11T06:16:59.969Z,41.20
2018-02-11T06:19:30.801Z,39.80
2018-02-11T06:22:01.614Z,39.60
2018-02-11T06:24:32.359Z,39.90
2018-02-11T06:27:03.541Z,40.40
2018-02-11T06:29:35.603Z,39.60
2018-02-11T06:32:07.636Z,40.40
2018-02-11T06:34:38.419Z,40.10
2018-02-11T06:37:09.937Z,40.60
2018-02-11T06:39:40.754Z,40.50
2018-02-11T06:42:11.565Z,40.00
2018-02-11T06:44:42.520Z,40.40
2018-02-11T06:47:13.375Z,40.20
2018-02-11T06:49:44.183Z,40.20
2018-02-11T06:52:15.225Z,40.60
2018-02-11T06:54:46.015Z,40.70
2018-02-11T06:57:17.639Z,40.40
2018-02-11T06:59:48.240Z,40.30
2018-02-11T07:02:19.006Z,40.10
2018-02-11T07:04:50.610Z,40.20
2018-02-11T07:07:21.598Z,40.20
2018-02-11T07:09:52.665Z,40.50
2018-02-11T07:12:24.274Z,40.50
2018-02-11T07:14:54.953Z,40.40
2018-02-11T07:17:25.892Z,40.70
2018-02-11T07:20:03.690Z,39.40
2018-02-11T07:22:35.064Z,40.00
2018-02-11T07:25:06.320Z,40.00
2018-02-11T07:27:37.226Z,41.00
2018-02-11T07:30:08.956Z,41.10
2018-02-11T07:32:40.054Z,41.00
2018-02-11T07:35:10.618Z,40.90
2018-02-11T07:37:41.507Z,40.70
2018-02-11T07:40:12.020Z,40.20
2018-02-11T07:42:43.646Z,39.80
2018-02-11T07:45:14.104Z,39.80
2018-02-11T07:47:45.893Z,39.90
2018-02-11T07:50:17.565Z,39.90
2018-02-11T07:52:48.497Z,39.80
2018-02-11T07:55:19.170Z,39.40
2018-02-11T07:57:49.947Z,40.30
2018-02-11T08:00:20.888Z,41.10
2018-02-11T08:02:52.004Z,42.60
2018-02-11T08:05:23.690Z,42.50
2018-02-11T08:07:54.700Z,42.50
2018-02-11T08:10:26.542Z,42.10
2018-02-11T08:12:57.282Z,42.00
2018-02-11T08:15:28.287Z,42.70
2018-02-11T08:17:59.268Z,43.10
2018-02-11T08:20:31.153Z,42.00
2018-02-11T08:23:02.016Z,41.70
2018-02-11T08:25:33.160Z,41.90
2018-02-11T08:28:03.992Z,42.60
2018-02-11T08:30:34.902Z,42.90
2018-02-11T08:33:06.755Z,42.70
2018-02-11T08:35:38.397Z,42.60
2018-02-11T08:38:09.867Z,43.30
2018-02-11T08:40:41.510Z,43.80
2018-02-11T08:43:13.102Z,43.70
2018-02-11T08:45:43.902Z,43.70
2018-02-11T08:48:15.666Z,44.40
2018-02-11T08:50:47.323Z,44.20
2018-02-11T08:53:19.060Z,44.20
2018-02-11T08:55:49.779Z,44.10
2018-02-11T08:58:20.692Z,44.70
2018-02-11T09:00:51.619Z,44.90
2018-02-11T09:03:22.622Z,44.70
2018-02-11T09:05:54.245Z,44.90
2018-02-11T09:08:25.131Z,44.90
2018-02-11T09:10:55.978Z,45.00
2018-02-11T09:13:26.896Z,45.00
2018-02-11T09:15:58.747Z,44.60
2018-02-11T09:18:30.401Z,43.70
2018-02-11T09:21:02.000Z,43.60
2018-02-11T09:23:32.921Z,43.70
2018-02-11T09:26:03.943Z,43.80
2018-02-11T09:28:35.578Z,43.10
2018-02-11T09:31:06.595Z,43.00
2018-02-11T09:33:38.902Z,42.30
2018-02-11T09:36:10.437Z,42.30
2018-02-11T09:38:41.165Z,42.20
2018-02-11T09:41:12.012Z,42.90
2018-02-11T09:43:43.378Z,43.20
2018-02-11T09:46:14.891Z,43.00
2018-02-11T09:48:45.698Z,42.90
2018-02-11T09:51:16.584Z,43.10
2018-02-11T09:53:47.230Z,42.90
2018-02-11T09:56:19.189Z,42.50
2018-02-11T09:58:50.794Z,42.30
2018-02-11T10:01:21.502Z,42.30
2018-02-11T10:03:53.076Z,41.80
2018-02-11T10:06:25.083Z,42.30
2018-02-11T10:08:56.845Z,43.00
2018-02-11T10:11:27.580Z,42.90
2018-02-11T10:13:58.330Z,43.50
2018-02-11T10:16:29.897Z,43.70
2018-02-11T10:19:01.781Z,44.00
2018-02-11T10:21:32.635Z,43.90
2018-02-11T10:24:04.221Z,44.10
2018-02-11T10:26:34.757Z,44.10
2018-02-11T10:29:06.446Z,44.40
2018-02-11T10:31:38.458Z,44.40
2018-02-11T10:34:09.811Z,44.60
2018-02-11T10:36:40.783Z,44.60
2018-02-11T10:39:11.644Z,44.90
2018-02-11T10:41:42.319Z,44.90
2018-02-11T10:44:13.174Z,44.90
2018-02-11T10:46:44.701Z,45.80
2018-02-11T10:49:15.624Z,45.80
2018-02-11T10:51:46.154Z,45.80
2018-02-11T10:54:17.714Z,45.70
2018-02-11T10:56:48.905Z,45.50
2018-02-11T10:59:19.733Z,45.90
2018-02-11T11:01:51.327Z,46.30
2018-02-11T11:04:22.301Z,46.30
2018-02-11T11:06:52.998Z,46.60
2018-02-11T11:09:23.721Z,46.60
2018-02-11T11:11:54.458Z,46.70
2018-02-11T11:14:25.437Z,46.90
2018-02-11T11:16:56.326Z,47.10
2018-02-11T11:19:27.316Z,46.90
2018-02-11T11:21:58.171Z,47.00
2018-02-11T11:24:29.911Z,47.70
2018-02-11T11:27:00.658Z,47.60
2018-02-11T11:29:32.739Z,47.20
2018-02-11T11:32:04.358Z,47.50
2018-02-11T11:34:35.333Z,47.50
2018-02-11T11:37:06.958Z,48.20
2018-02-11T11:39:37.863Z,48.20
2018-02-11T11:42:08.628Z,48.50
2018-02-11T11:44:39.465Z,48.80
2018-02-11T11:47:10.310Z,49.20
2018-02-11T11:49:41.199Z,49.70
2018-02-11T11:52:12.153Z,49.80
2018-02-11T11:54:43.119Z,49.90
2018-02-11T11:57:13.780Z,50.40
2018-02-11T11:59:45.539Z,50.30
2018-02-11T12:02:16.471Z,50.30
2018-02-11T12:04:48.083Z,51.30
2018-02-11T12:07:19.181Z,51.30
2018-02-11T12:09:50.221Z,51.20
2018-02-11T12:12:21.024Z,50.90
2018-02-11T12:14:51.761Z,49.80
2018-02-11T12:17:23.384Z,48.90
2018-02-11T12:19:55.074Z,48.90
2018-02-11T12:22:25.658Z,48.20
2018-02-11T12:24:56.687Z,48.80
2018-02-11T12:27:27.614Z,48.70
2018-02-11T12:29:58.421Z,48.70
2018-02-11T12:32:30.286Z,48.80
2018-02-11T12:35:01.711Z,48.80
2018-02-11T12:37:32.794Z,48.80
2018-02-11T12:40:04.627Z,49.20
2018-02-11T12:42:35.584Z,49.10
2018-02-11T12:45:07.193Z,50.00
2018-02-11T12:47:37.998Z,50.00
2018-02-11T12:50:08.913Z,49.70
2018-02-11T12:52:40.573Z,52.50
2018-02-11T12:55:12.219Z,52.60
2018-02-11T12:57:44.239Z,53.50
2018-02-11T13:00:15.547Z,53.50
2018-02-11T13:02:46.813Z,54.40
2018-02-11T13:05:18.470Z,54.60
2018-02-11T13:07:49.962Z,56.30
2018-02-11T13:10:21.228Z,56.40
2018-02-11T13:12:51.988Z,57.00
2018-02-11T13:15:22.803Z,57.40
2018-02-11T13:17:54.395Z,58.00
2018-02-11T13:20:26.788Z,58.00
2018-02-11T13:22:57.848Z,58.30
2018-02-11T13:25:28.404Z,59.20
2018-02-11T13:28:00.320Z,59.40
2018-02-11T13:30:31.378Z,59.40
2018-02-11T13:33:02.529Z,59.30
2018-02-11T13:35:34.790Z,60.00
2018-02-11T13:38:06.699Z,60.60
2018-02-11T13:40:37.433Z,60.60
2018-02-11T13:43:08.781Z,61.00
2018-02-11T13:45:39.836Z,61.50
2018-02-11T13:48:10.850Z,61.90
2018-02-11T13:50:41.975Z,62.30
2018-02-11T13:53:12.971Z,62.50
2018-02-11T13:55:43.978Z,63.10
2018-02-11T13:58:15.909Z,64.80
2018-02-11T14:00:47.539Z,65.60
2018-02-11T14:03:18.574Z,65.40
2018-02-11T14:05:49.943Z,66.10
2018-02-11T14:08:20.867Z,66.90
2018-02-11T14:10:52.252Z,67.70
2018-02-11T14:13:23.890Z,68.20
2018-02-11T14:15:54.678Z,68.10
2018-02-11T14:18:25.508Z,67.70
2018-02-11T14:20:56.956Z,67.70
2018-02-11T14:23:28.006Z,67.80
2018-02-11T14:25:58.977Z,67.90
2018-02-11T14:28:30.288Z,67.70
2018-02-11T14:31:01.677Z,67.40
2018-02-11T14:33:33.073Z,66.80
2018-02-11T14:36:03.999Z,66.10
2018-02-11T14:38:36.792Z,66.80
2018-02-11T14:41:09.269Z,67.20
2018-02-11T14:43:40.810Z,67.20
2018-02-11T14:46:13.004Z,66.20
2018-02-11T14:48:44.779Z,66.10
2018-02-11T14:51:16.082Z,65.80
2018-02-11T14:53:48.122Z,65.60
2018-02-11T14:56:19.733Z,65.60
2018-02-11T14:58:52.050Z,65.60
2018-02-11T15:01:23.659Z,65.90
2018-02-11T15:03:55.205Z,66.00
2018-02-11T15:06:27.343Z,66.30
2018-02-11T15:08:59.124Z,66.70
2018-02-11T15:11:30.823Z,66.60
2018-02-11T15:14:01.713Z,66.70
2018-02-11T15:16:32.610Z,66.70
2018-02-11T15:19:03.927Z,66.90
2018-02-11T15:21:35.298Z,67.00
2018-02-11T15:24:06.983Z,66.90
2018-02-11T15:26:38.882Z,67.00
2018-02-11T15:29:09.777Z,66.90
2018-02-11T15:31:40.687Z,67.00
2018-02-11T15:34:11.574Z,66.80
2018-02-11T15:36:42.650Z,66.80
2018-02-11T15:39:14.257Z,67.10
2018-02-11T15:41:45.913Z,67.20
2018-02-11T15:44:17.903Z,67.80
2018-02-11T15:46:49.133Z,67.80
2018-02-11T15:49:20.904Z,68.60
2018-02-11T15:51:52.047Z,68.60
2018-02-11T15:54:23.276Z,69.60
2018-02-11T15:56:55.230Z,71.00
2018-02-11T15:59:26.286Z,70.90
2018-02-11T16:01:58.542Z,71.90
2018-02-11T16:04:30.473Z,71.80
2018-02-11T16:07:01.575Z,71.70
2018-02-11T16:09:32.750Z,71.70
2018-02-11T16:12:03.975Z,72.00
2018-02-11T16:14:35.134Z,72.50
2018-02-11T16:17:06.810Z,72.70
2018-02-11T16:19:38.337Z,72.80
2018-02-11T16:22:09.100Z,72.70
2018-02-11T16:24:40.357Z,72.80
2018-02-11T16:27:11.270Z,72.90
2018-02-11T16:29:42.410Z,72.60
2018-02-11T16:32:13.358Z,73.30
2018-02-11T16:34:44.644Z,73.50
2018-02-11T16:37:16.486Z,74.80
2018-02-11T16:39:47.611Z,74.70
2018-02-11T16:42:19.213Z,74.80
2018-02-11T16:44:51.221Z,73.70
2018-02-11T16:47:22.752Z,74.30
2018-02-11T16:49:54.086Z,74.30
2018-02-11T16:52:24.987Z,73.30
2018-02-11T16:54:55.562Z,72.60
2018-02-11T16:57:26.574Z,72.60
2018-02-11T16:59:57.937Z,73.70
2018-02-11T17:02:29.661Z,73.80
2018-02-11T17:05:00.399Z,73.70
2018-02-11T17:07:31.425Z,73.10
2018-02-11T17:10:02.261Z,72.70
2018-02-11T17:12:33.186Z,73.60
2018-02-11T17:15:04.746Z,73.20
2018-02-11T17:17:35.690Z,72.50
2018-02-11T17:20:06.615Z,72.40
2018-02-11T17:22:37.346Z,70.80
2018-02-11T17:25:08.307Z,70.90
2018-02-11T17:27:39.058Z,71.90
2018-02-11T17:30:10.595Z,72.60
2018-02-11T17:32:41.403Z,72.60
2018-02-11T17:35:13.178Z,70.40
2018-02-11T17:37:44.052Z,70.90
2018-02-11T17:40:15.790Z,70.90
2018-02-11T17:42:47.099Z,70.60
2018-02-11T17:45:18.173Z,70.70
2018-02-11T17:47:48.906Z,70.10
2018-02-11T17:50:19.717Z,70.70
2018-02-11T17:52:50.513Z,70.10
2018-02-11T17:55:22.083Z,69.60
2018-02-11T17:57:52.623Z,69.60
2018-02-11T18:00:23.358Z,69.00
2018-02-11T18:02:54.559Z,69.50
2018-02-11T18:05:26.276Z,70.00
2018-02-11T18:07:57.110Z,70.00
2018-02-11T18:10:27.652Z,70.00
2018-02-11T18:12:58.601Z,70.20
2018-02-11T18:15:29.414Z,69.40
2018-02-11T18:18:00.169Z,69.20
2018-02-11T18:20:30.861Z,69.50
2018-02-11T18:23:01.784Z,69.30
2018-02-11T18:25:32.536Z,68.70
2018-02-11T18:28:03.431Z,69.20
2018-02-11T18:30:35.064Z,70.30
2018-02-11T18:33:05.884Z,70.30
2018-02-11T18:35:36.735Z,69.30
2018-02-11T18:38:07.703Z,69.10
2018-02-11T18:40:39.666Z,69.40
2018-02-11T18:43:11.231Z,69.40
2018-02-11T18:45:42.920Z,69.60
2018-02-11T18:48:13.821Z,69.60
2018-02-11T18:50:45.195Z,70.10
2018-02-11T18:53:16.029Z,70.80
2018-02-11T18:55:46.698Z,70.50
2018-02-11T18:58:17.664Z,70.80
2018-02-11T19:00:48.967Z,69.50
2018-02-11T19:03:19.962Z,69.50
2018-02-11T19:05:51.575Z,70.10
2018-02-11T19:08:22.284Z,70.10
2018-02-11T19:10:53.151Z,70.80
2018-02-11T19:13:24.105Z,71.20
2018-02-11T19:15:54.875Z,70.80
2018-02-11T19:18:25.935Z,69.60
2018-02-11T19:20:56.802Z,69.90
2018-02-11T19:23:27.630Z,69.90
2018-02-11T19:25:58.448Z,69.10
2018-02-11T19:28:29.217Z,69.50
2018-02-11T19:31:00.019Z,69.30
2018-02-11T19:33:31.046Z,69.40
2018-02-11T19:36:02.028Z,69.30
2018-02-11T19:38:32.863Z,69.20
2018-02-11T19:41:03.686Z,69.40
2018-02-11T19:43:34.511Z,69.40
2018-02-11T19:46:05.350Z,69.00
2018-02-11T19:48:36.087Z,68.40
2018-02-11T19:51:06.945Z,68.90
2018-02-11T19:53:37.654Z,69.90
2018-02-11T19:56:08.452Z,69.40
2018-02-11T19:58:40.129Z,69.20
2018-02-11T20:01:11.114Z,69.10
2018-02-11T20:03:41.930Z,69.80
2018-02-11T20:06:12.630Z,69.60
2018-02-11T20:08:43.577Z,69.80
2018-02-11T20:11:14.343Z,70.00
2018-02-11T20:13:45.225Z,69.90
2018-02-11T20:16:16.424Z,69.70
2018-02-11T20:18:46.834Z,69.70
2018-02-11T20:21:17.252Z,70.00
2018-02-11T20:23:48.042Z,69.70
2018-02-11T20:26:19.548Z,69.40
2018-02-11T20:28:50.350Z,69.40
2018-02-11T20:31:21.942Z,68.20
2018-02-11T20:33:52.794Z,68.20
2018-02-11T20:36:23.623Z,68.50
2018-02-11T20:38:54.442Z,68.10
2018-02-11T20:41:25.437Z,67.70
2018-02-11T20:43:57.233Z,68.10
2018-02-11T20:46:28.190Z,68.10
2018-02-11T20:48:58.986Z,68.70
2018-02-11T20:51:29.677Z,68.60
2018-02-11T20:54:00.247Z,69.00
2018-02-11T20:56:31.808Z,68.90
2018-02-11T20:59:02.482Z,68.80
2018-02-11T21:01:33.131Z,69.40
2018-02-11T21:04:05.634Z,68.70
2018-02-11T21:06:37.161Z,69.10
2018-02-11T21:09:08.209Z,69.10
2018-02-11T21:11:38.866Z,69.40
2018-02-11T21:14:10.032Z,69.40
2018-02-11T21:16:41.240Z,69.50
2018-02-11T21:19:12.894Z,68.10
2018-02-11T21:21:44.389Z,68.50
2018-02-11T21:24:15.090Z,67.80
2018-02-11T21:26:46.469Z,67.70
2018-02-11T21:29:17.481Z,67.60
2018-02-11T21:31:49.001Z,67.70
2018-02-11T21:34:19.943Z,67.70
2018-02-11T21:36:50.618Z,68.30
2018-02-11T21:39:21.508Z,68.30
2018-02-11T21:41:52.314Z,68.10
2018-02-11T21:44:23.282Z,67.80
2018-02-11T21:46:54.125Z,67.50
2018-02-11T21:49:24.630Z,67.80
2018-02-11T21:51:55.473Z,68.00
2018-02-11T21:54:26.118Z,68.80
2018-02-11T21:56:57.558Z,69.00
2018-02-11T21:59:28.329Z,69.10
2018-02-11T22:01:59.759Z,68.90
2018-02-11T22:04:30.657Z,68.90
2018-02-11T22:07:01.445Z,68.00
2018-02-11T22:09:33.159Z,67.80
2018-02-11T22:12:04.141Z,67.80
2018-02-11T22:14:35.572Z,68.50
2018-02-11T22:17:06.408Z,68.50
2018-02-11T22:19:37.062Z,68.90
2018-02-11T22:22:08.634Z,68.30
2018-02-11T22:24:40.334Z,68.40
2018-02-11T22:27:11.137Z,68.40
2018-02-11T22:29:41.814Z,68.60
2018-02-11T22:32:12.634Z,68.10
2018-02-11T22:34:43.794Z,68.40
2018-02-11T22:37:15.425Z,68.10
2018-02-11T22:39:46.355Z,68.10
2018-02-11T22:42:16.921Z,67.70
2018-02-11T22:44:47.739Z,67.50
2018-02-11T22:50:39.371Z,67.10
2018-02-11T22:53:10.193Z,67.20
2018-02-11T22:55:40.966Z,67.40
2018-02-11T22:58:11.622Z,67.90
2018-02-11T23:00:42.414Z,67.80
2018-02-11T23:03:13.371Z,67.40
2018-02-11T23:05:44.202Z,68.00
2018-02-11T23:08:15.014Z,68.10
2018-02-11T23:10:47.242Z,68.30
2018-02-11T23:13:18.025Z,67.80
2018-02-11T23:15:48.367Z,67.80
2018-02-11T23:18:18.809Z,67.60
2018-02-11T23:20:49.576Z,68.10
2018-02-11T23:23:21.032Z,67.50
2018-02-11T23:25:53.049Z,67.30
2018-02-11T23:28:24.058Z,67.30
2018-02-11T23:30:56.031Z,67.80
2018-02-11T23:33:26.809Z,66.60
2018-02-11T23:35:57.342Z,66.50
2018-02-11T23:38:28.254Z,66.90
2018-02-11T23:40:59.106Z,67.60
2018-02-11T23:43:29.909Z,68.20
2018-02-11T23:46:00.724Z,67.80
2018-02-11T23:48:32.250Z,68.50
2018-02-11T23:51:03.163Z,68.40
2018-02-11T23:53:33.936Z,67.30
2018-02-11T23:56:04.763Z,67.20
2018-02-11T23:58:35.910Z,67.00
